createdAt,value
2022-09-07T00:00:43.925Z,73.35
2022-09-07T00:03:11.216Z,72.47
2022-09-07T00:05:43.173Z,72.85
2022-09-07T00:08:10.747Z,71.54
2022-09-07T00:10:38.608Z,71.71
2022-09-07T00:13:07.440Z,72.15
2022-09-07T00:15:39.424Z,72.75
2022-09-07T00:18:06.772Z,73.43
2022-09-07T00:20:33.987Z,74.61
2022-09-07T00:23:01.251Z,74.05
2022-09-07T00:25:31.801Z,74.76
2022-09-07T00:27:59.455Z,74.63
2022-09-07T00:30:26.867Z,74.89
2022-09-07T00:32:54.110Z,74.63
2022-09-07T00:35:21.393Z,74.74
2022-09-07T00:37:48.723Z,74.19
2022-09-07T00:40:16.142Z,74.60
2022-09-07T00:42:43.388Z,75.57
2022-09-07T00:45:17.823Z,74.66
2022-09-07T00:47:55.586Z,73.01
2022-09-07T00:50:31.605Z,73.93
2022-09-07T00:53:15.913Z,73.57
2022-09-07T00:55:46.096Z,73.96
2022-09-07T00:58:13.813Z,74.59
2022-09-07T01:00:43.435Z,73.55
2022-09-07T01:03:11.408Z,73.65
2022-09-07T01:05:50.688Z,73.18
2022-09-07T01:08:18.432Z,72.86
2022-09-07T01:10:46.851Z,72.88
2022-09-07T01:13:15.154Z,73.13
2022-09-07T01:16:24.034Z,74.70
2022-09-07T01:19:24.411Z,74.03
2022-09-07T01:22:06.752Z,73.54
2022-09-07T01:25:03.020Z,73.26
2022-09-07T01:28:08.782Z,74.28
2022-09-07T01:30:38.544Z,73.99
2022-09-07T01:33:05.733Z,73.35
2022-09-07T01:35:35.797Z,74.60
2022-09-07T01:38:08.068Z,73.33
2022-09-07T01:41:00.149Z,73.89
2022-09-07T01:43:52.364Z,74.10
2022-09-07T01:46:31.942Z,74.82
2022-09-07T01:49:06.282Z,74.00
2022-09-07T01:51:37.025Z,75.11
2022-09-07T01:54:14.068Z,76.77
2022-09-07T01:56:46.744Z,76.53
2022-09-07T01:59:29.028Z,76.13
2022-09-07T02:02:04.177Z,76.08
2022-09-07T02:04:37.675Z,75.23
2022-09-07T02:07:04.887Z,75.25
2022-09-07T02:09:47.104Z,73.77
2022-09-07T02:12:22.266Z,73.71
2022-09-07T02:14:57.665Z,75.55
2022-09-07T02:17:48.971Z,75.13
2022-09-07T02:20:21.123Z,74.57
2022-09-07T02:22:54.210Z,75.06
2022-09-07T02:25:28.936Z,75.29
2022-09-07T02:28:07.881Z,76.13
2022-09-07T02:30:35.194Z,75.84
2022-09-07T02:33:02.495Z,76.24
2022-09-07T02:35:30.026Z,75.87
2022-09-07T02:38:00.668Z,76.15
2022-09-07T02:40:27.977Z,76.26
2022-09-07T02:42:57.117Z,76.45
2022-09-07T02:45:24.395Z,75.93
2022-09-07T02:48:22.831Z,77.55
2022-09-07T02:51:11.274Z,77.41
2022-09-07T02:54:02.592Z,77.22
2022-09-07T02:56:54.389Z,77.89
2022-09-07T02:59:45.816Z,77.76
2022-09-07T03:02:39.630Z,77.96
2022-09-07T03:05:29.147Z,78.38
2022-09-07T03:08:04.195Z,78.49
2022-09-07T03:10:32.158Z,77.79
2022-09-07T03:12:59.436Z,77.12
2022-09-07T03:15:28.094Z,77.27
2022-09-07T03:17:55.406Z,76.88
2022-09-07T03:20:23.476Z,77.29
2022-09-07T03:22:52.361Z,76.66
2022-09-07T03:25:20.010Z,75.79
2022-09-07T03:27:47.349Z,75.24
2022-09-07T03:30:14.786Z,76.66
2022-09-07T03:32:42.112Z,76.30
2022-09-07T03:35:15.527Z,77.01
2022-09-07T03:37:42.999Z,77.67
2022-09-07T03:40:12.203Z,77.72
2022-09-07T03:42:40.225Z,78.34
2022-09-07T03:45:08.184Z,77.99
2022-09-07T03:47:36.941Z,78.19
2022-09-07T03:50:05.646Z,79.33
2022-09-07T03:52:34.445Z,79.07
2022-09-07T03:55:01.801Z,78.89
2022-09-07T03:57:29.073Z,78.08
2022-09-07T03:59:56.296Z,79.06
2022-09-07T04:02:23.645Z,78.65
2022-09-07T04:04:50.889Z,79.30
2022-09-07T04:07:18.148Z,79.38
2022-09-07T04:09:45.411Z,80.07
2022-09-07T04:12:12.640Z,81.19
2022-09-07T04:14:39.971Z,81.85
2022-09-07T04:17:07.289Z,81.72
2022-09-07T04:19:34.657Z,82.14
2022-09-07T04:22:01.964Z,82.10
2022-09-07T04:24:29.433Z,82.02
2022-09-07T04:26:56.664Z,81.34
2022-09-07T04:29:24.012Z,81.30
2022-09-07T04:31:51.238Z,81.13
2022-09-07T04:34:18.561Z,80.72
2022-09-07T04:36:45.845Z,81.67
2022-09-07T04:39:13.132Z,81.79
2022-09-07T04:41:40.383Z,82.32
2022-09-07T04:44:07.712Z,82.07
2022-09-07T04:46:36.730Z,82.53
2022-09-07T04:49:06.984Z,82.72
2022-09-07T04:51:35.743Z,83.16
2022-09-07T04:54:04.273Z,82.68
2022-09-07T04:56:32.805Z,83.23
2022-09-07T04:59:01.727Z,84.03
2022-09-07T05:01:30.085Z,83.91
2022-09-07T05:04:00.576Z,84.01
2022-09-07T05:06:28.523Z,83.90
2022-09-07T05:08:56.613Z,84.04
2022-09-07T05:11:28.650Z,84.48
2022-09-07T05:14:01.235Z,85.03
2022-09-07T05:16:29.776Z,85.37
2022-09-07T05:19:01.995Z,85.87
2022-09-07T05:21:32.071Z,87.37
2022-09-07T05:24:00.655Z,81.96
2022-09-07T05:26:30.191Z,80.90
2022-09-07T05:31:49.939Z,77.22
2022-09-07T05:34:33.178Z,76.18
2022-09-07T05:37:01.399Z,77.74
2022-09-07T05:39:29.255Z,76.76
2022-09-07T05:41:56.838Z,76.46
2022-09-07T05:47:11.622Z,75.46
2022-09-07T05:49:39.031Z,75.34
2022-09-07T05:52:06.853Z,74.87
2022-09-07T05:54:34.195Z,74.72
2022-09-07T05:57:03.552Z,77.33
2022-09-07T05:59:30.948Z,75.70
2022-09-07T06:01:58.329Z,75.82
2022-09-07T06:04:25.904Z,75.09
2022-09-07T06:12:28.489Z,75.73
2022-09-07T06:14:55.797Z,74.77
2022-09-07T06:17:23.112Z,75.74
2022-09-07T06:19:50.379Z,72.29
2022-09-07T06:22:17.643Z,74.56
2022-09-07T06:24:44.899Z,72.84
2022-09-07T06:27:12.181Z,73.74
2022-09-07T06:29:39.404Z,73.17
2022-09-07T06:34:53.970Z,72.75
2022-09-07T06:37:21.274Z,73.33
2022-09-07T06:39:49.404Z,73.93
2022-09-07T06:42:16.845Z,74.71
2022-09-07T06:44:44.888Z,76.73
2022-09-07T06:47:12.165Z,77.08
2022-09-07T06:49:39.460Z,78.09
2022-09-07T06:52:06.795Z,76.44
2022-09-07T06:57:21.516Z,80.72
2022-09-07T06:59:48.772Z,80.78
2022-09-07T07:02:16.028Z,80.85
2022-09-07T07:04:43.302Z,80.07
2022-09-07T07:07:14.743Z,79.54
2022-09-07T07:09:42.127Z,81.03
2022-09-07T07:12:10.609Z,82.22
2022-09-07T07:14:43.979Z,83.06
2022-09-07T07:17:13.192Z,81.05
2022-09-07T07:19:40.457Z,83.43
2022-09-07T07:22:36.008Z,83.50
2022-09-07T07:24:54.961Z,83.97
2022-09-07T07:27:22.522Z,81.51
2022-09-07T07:29:49.986Z,82.83
2022-09-07T07:32:17.239Z,83.32
2022-09-07T07:34:44.527Z,81.71
2022-09-07T07:37:11.772Z,83.09
2022-09-07T07:42:26.656Z,83.35
2022-09-07T07:47:59.668Z,82.80
2022-09-07T07:50:34.632Z,83.96
2022-09-07T07:55:49.469Z,83.71
2022-09-07T07:58:17.201Z,84.90
2022-09-07T08:00:54.296Z,83.75
2022-09-07T08:03:24.605Z,81.77
2022-09-07T08:05:52.174Z,81.92
2022-09-07T08:08:19.753Z,82.89
2022-09-07T08:10:47.743Z,81.91
2022-09-07T08:13:19.112Z,82.51
2022-09-07T08:15:48.463Z,82.12
2022-09-07T08:18:17.321Z,82.05
2022-09-07T08:20:44.755Z,81.50
2022-09-07T08:23:12.150Z,80.59
2022-09-07T08:25:39.410Z,80.87
2022-09-07T08:28:06.814Z,78.50
2022-09-07T08:30:34.023Z,78.32
2022-09-07T08:33:08.678Z,80.23
2022-09-07T08:35:44.177Z,79.54
2022-09-07T08:38:12.872Z,80.55
2022-09-07T08:40:40.135Z,77.96
2022-09-07T08:43:31.664Z,78.45
2022-09-07T08:46:29.596Z,76.56
2022-09-07T08:48:59.681Z,76.08
2022-09-07T08:51:42.062Z,76.37
2022-09-07T08:54:13.775Z,77.84
2022-09-07T08:57:20.653Z,77.45
2022-09-07T08:59:43.656Z,77.92
2022-09-07T09:02:31.920Z,77.73
2022-09-07T09:05:17.703Z,76.52
2022-09-07T09:07:59.779Z,76.71
2022-09-07T09:10:48.210Z,77.47
2022-09-07T09:13:15.375Z,77.97
2022-09-07T09:15:52.996Z,76.75
2022-09-07T09:18:32.399Z,76.45
2022-09-07T09:21:01.358Z,74.99
2022-09-07T09:23:36.748Z,74.99
2022-09-07T09:26:25.691Z,74.08
2022-09-07T09:28:53.575Z,72.64
2022-09-07T09:31:28.157Z,72.45
2022-09-07T09:34:13.999Z,74.47
2022-09-07T09:36:46.151Z,71.35
2022-09-07T09:39:27.989Z,71.85
2022-09-07T09:42:14.520Z,72.57
2022-09-07T09:44:45.785Z,71.78
2022-09-07T09:47:33.099Z,72.09
2022-09-07T09:52:29.302Z,71.69
2022-09-07T09:53:05.434Z,71.77
2022-09-07T09:55:37.037Z,69.32
2022-09-07T10:01:24.005Z,68.45
2022-09-07T10:06:22.047Z,69.04
2022-09-07T10:09:00.144Z,68.89
2022-09-07T10:14:44.256Z,65.75
2022-09-07T10:17:35.638Z,66.09
2022-09-07T10:20:18.859Z,65.57
2022-09-07T10:22:58.383Z,66.06
2022-09-07T10:25:37.696Z,66.43
2022-09-07T10:28:14.370Z,65.65
2022-09-07T10:30:47.618Z,67.39
2022-09-07T10:33:33.507Z,66.95
2022-09-07T10:36:25.640Z,65.80
2022-09-07T10:39:24.957Z,67.81
2022-09-07T10:42:13.861Z,67.86
2022-09-07T10:45:11.260Z,64.26
2022-09-07T10:48:08.072Z,65.02
2022-09-07T10:50:53.299Z,63.70
2022-09-07T10:53:43.812Z,63.99
2022-09-07T10:56:15.382Z,65.31
2022-09-07T10:59:03.953Z,65.67
2022-09-07T11:01:37.860Z,64.11
2022-09-07T11:04:34.955Z,65.34
2022-09-07T11:07:16.171Z,61.77
2022-09-07T11:09:57.898Z,62.96
2022-09-07T11:12:37.665Z,62.78
2022-09-07T11:15:26.316Z,63.14
2022-09-07T11:18:03.513Z,60.04
2022-09-07T11:20:42.567Z,58.86
2022-09-07T11:23:31.204Z,59.46
2022-09-07T11:26:14.399Z,60.43
2022-09-07T11:29:35.980Z,60.17
2022-09-07T11:32:25.189Z,61.38
2022-09-07T11:34:57.604Z,60.01
2022-09-07T11:37:51.096Z,60.09
2022-09-07T11:40:27.148Z,58.93
2022-09-07T11:43:00.749Z,60.53
2022-09-07T11:45:44.320Z,59.13
2022-09-07T11:48:21.455Z,56.63
2022-09-07T11:50:53.927Z,58.03
2022-09-07T11:53:31.597Z,56.81
2022-09-07T11:56:07.452Z,58.10
2022-09-07T11:59:15.665Z,58.59
2022-09-07T12:01:50.615Z,58.47
2022-09-07T12:04:39.999Z,57.18
2022-09-07T12:07:45.756Z,57.62
2022-09-07T12:10:31.236Z,57.56
2022-09-07T12:13:16.788Z,58.40
2022-09-07T12:16:28.606Z,56.52
2022-09-07T12:19:04.540Z,56.77
2022-09-07T12:21:40.583Z,57.35
2022-09-07T12:24:45.863Z,57.76
2022-09-07T12:27:21.944Z,57.65
2022-09-07T12:29:52.662Z,57.81
2022-09-07T12:32:54.230Z,57.44
2022-09-07T12:35:31.158Z,57.13
2022-09-07T12:38:02.786Z,57.26
2022-09-07T12:40:35.663Z,56.88
2022-09-07T12:43:14.826Z,55.72
2022-09-07T12:45:42.283Z,56.85
2022-09-07T12:49:16.778Z,54.66
2022-09-07T13:00:10.724Z,54.88
2022-09-07T13:07:01.636Z,52.62
2022-09-07T13:09:16.549Z,54.51
2022-09-07T13:11:43.970Z,54.75
2022-09-07T13:14:14.120Z,54.69
2022-09-07T13:19:46.989Z,54.33
2022-09-07T13:22:29.236Z,53.44
2022-09-07T13:24:59.669Z,53.43
2022-09-07T13:27:26.984Z,49.15
2022-09-07T13:30:22.466Z,52.50
2022-09-07T13:33:08.360Z,51.02
2022-09-07T13:35:36.505Z,52.27
2022-09-07T13:38:04.794Z,52.79
2022-09-07T13:40:40.095Z,51.30
2022-09-07T13:43:16.463Z,51.42
2022-09-07T13:45:55.702Z,52.24
2022-09-07T13:48:51.434Z,51.06
2022-09-07T13:51:43.179Z,51.77
2022-09-07T13:54:44.037Z,51.03
2022-09-07T13:57:28.335Z,51.41
2022-09-07T13:59:56.964Z,53.30
2022-09-07T14:02:28.589Z,53.15
2022-09-07T14:05:00.373Z,52.55
2022-09-07T14:07:30.366Z,53.44
2022-09-07T14:10:25.406Z,52.44
2022-09-07T14:13:12.374Z,53.35
2022-09-07T14:15:45.749Z,52.00
2022-09-07T14:18:15.327Z,53.14
2022-09-07T14:20:53.696Z,52.08
2022-09-07T14:23:29.753Z,52.27
2022-09-07T14:26:22.025Z,51.18
2022-09-07T14:28:51.689Z,50.97
2022-09-07T14:31:20.863Z,50.51
2022-09-07T14:33:53.903Z,49.21
2022-09-07T14:36:48.252Z,50.96
2022-09-07T14:39:19.452Z,50.46
2022-09-07T14:41:47.267Z,51.10
2022-09-07T14:44:36.766Z,50.68
2022-09-07T14:47:20.455Z,51.55
2022-09-07T14:49:52.738Z,51.39
2022-09-07T14:55:47.030Z,52.13
2022-09-07T14:58:14.169Z,52.69
2022-09-07T15:00:46.838Z,52.02
2022-09-07T15:03:27.293Z,52.59
2022-09-07T15:06:00.798Z,48.42
2022-09-07T15:08:45.540Z,48.92
2022-09-07T15:11:39.509Z,48.94
2022-09-07T15:14:11.904Z,48.40
2022-09-07T15:16:42.529Z,49.00
2022-09-07T15:19:15.768Z,48.15
2022-09-07T15:21:43.962Z,47.77
2022-09-07T15:24:11.823Z,48.02
2022-09-07T15:27:02.984Z,48.15
2022-09-07T15:29:31.096Z,49.99
2022-09-07T15:32:03.937Z,48.69
2022-09-07T15:34:33.241Z,49.04
2022-09-07T15:37:02.670Z,49.58
2022-09-07T15:39:31.282Z,49.40
2022-09-07T15:42:00.587Z,50.88
2022-09-07T15:44:46.065Z,51.42
2022-09-07T15:50:00.557Z,51.59
2022-09-07T15:52:28.157Z,51.46
2022-09-07T15:54:59.284Z,51.71
2022-09-07T16:00:14.509Z,52.54
2022-09-07T16:05:31.421Z,52.45
2022-09-07T16:10:55.993Z,54.27
2022-09-07T16:13:31.868Z,55.62
2022-09-07T16:15:59.872Z,57.52
2022-09-07T16:18:31.259Z,56.24
2022-09-07T16:21:04.891Z,56.99
2022-09-07T16:23:32.215Z,58.38
2022-09-07T16:26:02.239Z,57.67
2022-09-07T16:28:30.665Z,57.94
2022-09-07T16:30:58.804Z,58.84
2022-09-07T16:33:33.055Z,58.71
2022-09-07T16:36:12.007Z,60.13
2022-09-07T16:38:44.439Z,59.63
2022-09-07T16:41:14.757Z,60.68
2022-09-07T16:43:42.392Z,60.68
2022-09-07T16:46:14.347Z,61.27
2022-09-07T16:48:41.840Z,61.77
2022-09-07T16:51:12.072Z,62.13
2022-09-07T16:53:39.734Z,62.49
2022-09-07T16:56:10.222Z,62.81
2022-09-07T16:58:42.803Z,63.28
2022-09-07T17:01:13.593Z,63.95
2022-09-07T17:03:41.073Z,64.40
2022-09-07T17:06:11.045Z,64.08
2022-09-07T17:08:39.475Z,64.40
2022-09-07T17:11:10.087Z,64.41
2022-09-07T17:13:38.724Z,65.04
2022-09-07T17:16:12.325Z,64.95
2022-09-07T17:21:36.685Z,65.02
2022-09-07T17:24:05.502Z,64.63
2022-09-07T17:26:33.183Z,64.40
2022-09-07T17:29:01.285Z,62.45
2022-09-07T17:34:21.252Z,60.13
2022-09-07T17:36:48.814Z,60.37
2022-09-07T17:39:18.117Z,59.50
2022-09-07T17:41:52.557Z,59.27
2022-09-07T17:44:21.607Z,59.47
2022-09-07T17:46:48.923Z,59.53
2022-09-07T17:49:16.832Z,60.46
2022-09-07T17:51:45.278Z,60.58
2022-09-07T17:54:17.345Z,61.78
2022-09-07T17:56:45.266Z,65.46
2022-09-07T18:02:00.962Z,64.28
2022-09-07T18:04:28.882Z,68.53
2022-09-07T18:06:56.275Z,72.64
2022-09-07T18:09:23.463Z,81.47
2022-09-07T18:11:51.065Z,83.52
2022-09-07T18:14:19.160Z,83.30
2022-09-07T18:16:49.670Z,81.10
2022-09-07T18:19:18.653Z,86.46
2022-09-07T18:21:47.761Z,90.37
2022-09-07T18:24:19.304Z,89.59
2022-09-07T18:26:52.265Z,91.14
2022-09-07T18:29:31.359Z,84.92
2022-09-07T18:32:01.211Z,82.90
2022-09-07T18:34:28.989Z,80.60
2022-09-07T18:36:58.193Z,83.22
2022-09-07T18:39:26.361Z,83.33
2022-09-07T18:41:54.298Z,79.49
2022-09-07T18:47:08.972Z,75.36
2022-09-07T18:49:36.143Z,76.52
2022-09-07T18:54:51.254Z,71.59
2022-09-07T18:57:18.931Z,70.13
2022-09-07T18:59:46.324Z,69.67
2022-09-07T19:02:14.254Z,69.19
2022-09-07T19:07:30.091Z,68.24
2022-09-07T19:09:58.129Z,74.06
2022-09-07T19:12:25.310Z,77.32
2022-09-07T19:14:52.514Z,80.27
2022-09-07T19:17:19.797Z,81.63
2022-09-07T19:19:48.333Z,85.25
2022-09-07T19:22:15.569Z,87.67
2022-09-07T19:24:42.772Z,88.07
2022-09-07T19:27:09.943Z,88.01
2022-09-07T19:29:37.132Z,88.15
2022-09-07T19:32:04.493Z,86.39
2022-09-07T19:34:42.554Z,79.76
2022-09-07T19:37:11.774Z,76.65
2022-09-07T19:39:39.731Z,76.38
2022-09-07T19:42:07.355Z,77.83
2022-09-07T19:44:35.067Z,79.48
2022-09-07T19:47:02.343Z,78.85
2022-09-07T19:49:30.452Z,80.30
2022-09-07T19:51:57.772Z,80.44
2022-09-07T19:54:25.272Z,79.70
2022-09-07T19:56:52.463Z,79.26
2022-09-07T19:59:20.146Z,76.60
2022-09-07T20:01:49.401Z,74.31
2022-09-07T20:04:20.539Z,73.09
2022-09-07T20:06:50.159Z,71.51
2022-09-07T20:09:18.630Z,71.44
2022-09-07T20:11:47.542Z,71.94
2022-09-07T20:14:16.143Z,71.11
2022-09-07T20:16:43.758Z,70.24
2022-09-07T20:19:14.352Z,70.73
2022-09-07T20:21:42.613Z,75.21
2022-09-07T20:24:14.427Z,71.33
2022-09-07T20:26:41.729Z,70.81
2022-09-07T20:32:00.953Z,71.70
2022-09-07T20:34:28.965Z,73.50
2022-09-07T20:36:56.983Z,71.43
2022-09-07T20:39:24.637Z,70.73
2022-09-07T20:41:51.882Z,73.14
2022-09-07T20:44:19.264Z,74.40
2022-09-07T20:46:46.656Z,75.11
2022-09-07T20:49:13.953Z,75.81
2022-09-07T20:51:41.283Z,76.21
2022-09-07T20:54:08.523Z,74.45
2022-09-07T20:56:35.936Z,73.49
2022-09-07T20:59:03.963Z,72.19
2022-09-07T21:01:32.584Z,72.76
2022-09-07T21:04:01.136Z,72.64
2022-09-07T21:06:29.477Z,71.52
2022-09-07T21:08:57.324Z,70.16
2022-09-07T21:11:27.574Z,71.59
2022-09-07T21:14:00.125Z,78.08
2022-09-07T21:16:28.391Z,80.30
2022-09-07T21:18:57.975Z,81.37
2022-09-07T21:21:27.295Z,81.87
2022-09-07T21:23:56.765Z,81.37
2022-09-07T21:26:24.920Z,77.87
2022-09-07T21:29:00.156Z,76.68
2022-09-07T21:31:29.219Z,74.36
2022-09-07T21:33:58.871Z,73.74
2022-09-07T21:36:26.941Z,80.37
2022-09-07T21:38:54.962Z,84.51
2022-09-07T21:41:24.386Z,82.56
2022-09-07T21:43:59.003Z,81.06
2022-09-07T21:46:28.201Z,80.35
2022-09-07T21:48:56.455Z,76.49
2022-09-07T21:51:24.433Z,76.75
2022-09-07T21:53:55.935Z,78.13
2022-09-07T21:56:23.571Z,78.08
2022-09-07T21:58:55.465Z,77.57
2022-09-07T22:01:24.037Z,74.63
2022-09-07T22:04:06.859Z,73.04
2022-09-07T22:06:37.719Z,73.60
2022-09-07T22:09:05.203Z,75.37
2022-09-07T22:11:32.481Z,74.25
2022-09-07T22:16:31.259Z,71.95
2022-09-07T22:18:58.971Z,74.58
2022-09-07T22:21:27.951Z,77.06
2022-09-07T22:24:03.005Z,77.76
2022-09-07T22:26:37.558Z,81.06
2022-09-07T22:29:06.850Z,83.71
2022-09-07T22:31:36.423Z,83.75
2022-09-07T22:34:07.967Z,82.47
2022-09-07T22:36:44.557Z,80.17
2022-09-07T22:39:15.139Z,76.88
2022-09-07T22:41:43.776Z,79.11
2022-09-07T22:44:15.960Z,81.26
2022-09-07T22:46:44.948Z,80.70
2022-09-07T22:49:14.597Z,81.23
2022-09-07T22:51:42.260Z,83.15
2022-09-07T22:54:09.617Z,79.79
2022-09-07T22:56:37.236Z,77.53
2022-09-07T22:59:07.525Z,80.31
2022-09-07T23:01:36.092Z,83.01
2022-09-07T23:04:04.270Z,84.61
2022-09-07T23:06:37.478Z,83.99
2022-09-07T23:09:06.803Z,81.98
2022-09-07T23:11:34.152Z,78.64
2022-09-07T23:14:05.947Z,77.97
2022-09-07T23:16:33.295Z,77.55
2022-09-07T23:19:00.866Z,76.06
2022-09-07T23:21:28.068Z,74.21
2022-09-07T23:23:58.252Z,73.85
2022-09-07T23:26:28.763Z,75.07
2022-09-07T23:29:00.227Z,74.76
2022-09-07T23:31:29.012Z,73.16
2022-09-07T23:33:57.437Z,71.90
2022-09-07T23:36:25.333Z,71.67
2022-09-07T23:38:55.366Z,71.47
2022-09-07T23:41:24.212Z,70.16
2022-09-07T23:43:52.487Z,72.31
2022-09-07T23:46:19.951Z,71.19
2022-09-07T23:48:48.539Z,70.77
2022-09-07T23:51:21.227Z,70.52
2022-09-07T23:53:51.241Z,70.00
2022-09-07T23:56:18.391Z,70.14
2022-09-07T23:58:45.596Z,69.31
